sensor_id;sensor_type;location;lat;lon;timestamp;temperature;humidity
18717;DHT22;9487;50.892;6.906;2023-03-05T00:00:14;4.90;99.90
18717;DHT22;9487;50.892;6.906;2023-03-05T00:02:41;4.90;99.90
18717;DHT22;9487;50.892;6.906;2023-03-05T00:05:09;4.90;99.90
18717;DHT22;9487;50.892;6.906;2023-03-05T00:07:36;4.90;99.90
18717;DHT22;9487;50.892;6.906;2023-03-05T00:10:04;4.90;99.90
18717;DHT22;9487;50.892;6.906;2023-03-05T00:12:32;4.90;99.90
18717;DHT22;9487;50.892;6.906;2023-03-05T00:14:59;4.90;99.90
18717;DHT22;9487;50.892;6.906;2023-03-05T00:17:25;4.90;99.90
18717;DHT22;9487;50.892;6.906;2023-03-05T00:19:52;4.90;99.90
18717;DHT22;9487;50.892;6.906;2023-03-05T00:22:19;4.90;99.90
18717;DHT22;9487;50.892;6.906;2023-03-05T00:24:49;4.90;99.90
18717;DHT22;9487;50.892;6.906;2023-03-05T00:27:16;4.90;99.90
18717;DHT22;9487;50.892;6.906;2023-03-05T00:29:44;4.80;99.90
18717;DHT22;9487;50.892;6.906;2023-03-05T00:32:11;4.80;99.90
18717;DHT22;9487;50.892;6.906;2023-03-05T00:34:38;4.80;99.90
18717;DHT22;9487;50.892;6.906;2023-03-05T00:37:04;4.90;99.90
18717;DHT22;9487;50.892;6.906;2023-03-05T00:39:32;4.80;99.90
18717;DHT22;9487;50.892;6.906;2023-03-05T00:41:59;4.80;99.90
18717;DHT22;9487;50.892;6.906;2023-03-05T00:44:25;4.80;99.90
18717;DHT22;9487;50.892;6.906;2023-03-05T00:46:54;4.70;99.90
18717;DHT22;9487;50.892;6.906;2023-03-05T00:49:20;4.70;99.90
18717;DHT22;9487;50.892;6.906;2023-03-05T00:51:47;4.80;99.90
18717;DHT22;9487;50.892;6.906;2023-03-05T00:54:14;4.80;99.90
18717;DHT22;9487;50.892;6.906;2023-03-05T00:56:41;4.80;99.90
18717;DHT22;9487;50.892;6.906;2023-03-05T00:59:08;4.70;99.90
18717;DHT22;9487;50.892;6.906;2023-03-05T01:01:34;4.80;99.90
18717;DHT22;9487;50.892;6.906;2023-03-05T01:04:03;4.70;99.90
18717;DHT22;9487;50.892;6.906;2023-03-05T01:06:30;4.70;99.90
18717;DHT22;9487;50.892;6.906;2023-03-05T01:08:56;4.70;99.90
18717;DHT22;9487;50.892;6.906;2023-03-05T01:11:24;4.70;99.90
18717;DHT22;9487;50.892;6.906;2023-03-05T01:13:50;4.70;99.90
18717;DHT22;9487;50.892;6.906;2023-03-05T01:16:17;4.70;99.90
18717;DHT22;9487;50.892;6.906;2023-03-05T01:18:44;4.70;99.90
18717;DHT22;9487;50.892;6.906;2023-03-05T01:21:12;4.70;99.90
18717;DHT22;9487;50.892;6.906;2023-03-05T01:23:39;4.70;99.90
18717;DHT22;9487;50.892;6.906;2023-03-05T01:26:06;4.70;99.90
18717;DHT22;9487;50.892;6.906;2023-03-05T01:28:33;4.60;99.90
18717;DHT22;9487;50.892;6.906;2023-03-05T01:31:00;4.70;99.90
18717;DHT22;9487;50.892;6.906;2023-03-05T01:33:28;4.70;99.90
18717;DHT22;9487;50.892;6.906;2023-03-05T01:35:54;4.70;99.90
18717;DHT22;9487;50.892;6.906;2023-03-05T01:38:23;4.70;99.90
18717;DHT22;9487;50.892;6.906;2023-03-05T01:40:49;4.70;99.90
18717;DHT22;9487;50.892;6.906;2023-03-05T01:43:23;4.70;99.90
18717;DHT22;9487;50.892;6.906;2023-03-05T01:46:27;4.60;99.90
18717;DHT22;9487;50.892;6.906;2023-03-05T01:49:01;4.60;99.90
18717;DHT22;9487;50.892;6.906;2023-03-05T01:51:30;4.60;99.90
18717;DHT22;9487;50.892;6.906;2023-03-05T01:53:59;4.70;99.90
18717;DHT22;9487;50.892;6.906;2023-03-05T01:56:28;4.70;99.90
18717;DHT22;9487;50.892;6.906;2023-03-05T01:58:56;4.70;99.90
18717;DHT22;9487;50.892;6.906;2023-03-05T02:01:32;4.60;99.90
18717;DHT22;9487;50.892;6.906;2023-03-05T02:04:02;4.60;99.90
18717;DHT22;9487;50.892;6.906;2023-03-05T02:06:29;4.60;99.90
18717;DHT22;9487;50.892;6.906;2023-03-05T02:08:56;4.60;99.90
18717;DHT22;9487;50.892;6.906;2023-03-05T02:11:24;4.60;99.90
18717;DHT22;9487;50.892;6.906;2023-03-05T02:13:51;4.60;99.90
18717;DHT22;9487;50.892;6.906;2023-03-05T02:16:18;4.60;99.90
18717;DHT22;9487;50.892;6.906;2023-03-05T02:18:45;4.60;99.90
18717;DHT22;9487;50.892;6.906;2023-03-05T02:21:13;4.70;99.90
18717;DHT22;9487;50.892;6.906;2023-03-05T02:23:40;4.60;99.90
18717;DHT22;9487;50.892;6.906;2023-03-05T02:26:08;4.60;99.90
18717;DHT22;9487;50.892;6.906;2023-03-05T02:28:38;4.60;99.90
18717;DHT22;9487;50.892;6.906;2023-03-05T02:31:09;4.60;99.90
18717;DHT22;9487;50.892;6.906;2023-03-05T02:33:38;4.60;99.90
18717;DHT22;9487;50.892;6.906;2023-03-05T02:36:06;4.60;99.90
18717;DHT22;9487;50.892;6.906;2023-03-05T02:38:34;4.50;99.90
18717;DHT22;9487;50.892;6.906;2023-03-05T02:41:01;4.60;99.90
18717;DHT22;9487;50.892;6.906;2023-03-05T02:43:28;4.40;99.90
18717;DHT22;9487;50.892;6.906;2023-03-05T02:45:54;4.50;99.90
18717;DHT22;9487;50.892;6.906;2023-03-05T02:48:21;4.50;99.90
18717;DHT22;9487;50.892;6.906;2023-03-05T02:50:48;4.50;99.90
18717;DHT22;9487;50.892;6.906;2023-03-05T02:53:15;4.50;99.90
18717;DHT22;9487;50.892;6.906;2023-03-05T02:55:46;4.40;99.90
18717;DHT22;9487;50.892;6.906;2023-03-05T02:58:14;4.40;99.90
18717;DHT22;9487;50.892;6.906;2023-03-05T03:00:41;4.40;99.90
18717;DHT22;9487;50.892;6.906;2023-03-05T03:03:08;4.40;99.90
18717;DHT22;9487;50.892;6.906;2023-03-05T03:05:35;4.40;99.90
18717;DHT22;9487;50.892;6.906;2023-03-05T03:08:02;4.40;99.90
18717;DHT22;9487;50.892;6.906;2023-03-05T03:10:29;4.40;99.90
18717;DHT22;9487;50.892;6.906;2023-03-05T03:12:57;4.40;99.90
18717;DHT22;9487;50.892;6.906;2023-03-05T03:15:24;4.40;99.90
18717;DHT22;9487;50.892;6.906;2023-03-05T03:17:51;4.30;99.90
18717;DHT22;9487;50.892;6.906;2023-03-05T03:20:18;4.30;99.90
18717;DHT22;9487;50.892;6.906;2023-03-05T03:22:45;4.30;99.90
18717;DHT22;9487;50.892;6.906;2023-03-05T03:25:13;4.40;99.90
18717;DHT22;9487;50.892;6.906;2023-03-05T03:27:40;4.30;99.90
18717;DHT22;9487;50.892;6.906;2023-03-05T03:30:10;4.30;99.90
18717;DHT22;9487;50.892;6.906;2023-03-05T03:32:37;4.40;99.90
18717;DHT22;9487;50.892;6.906;2023-03-05T03:35:05;4.30;99.90
18717;DHT22;9487;50.892;6.906;2023-03-05T03:37:32;4.40;99.90
18717;DHT22;9487;50.892;6.906;2023-03-05T03:39:59;4.40;99.90
18717;DHT22;9487;50.892;6.906;2023-03-05T03:42:26;4.30;99.90
18717;DHT22;9487;50.892;6.906;2023-03-05T03:44:53;4.30;99.90
18717;DHT22;9487;50.892;6.906;2023-03-05T03:47:21;4.30;99.90
18717;DHT22;9487;50.892;6.906;2023-03-05T03:49:48;4.30;99.90
18717;DHT22;9487;50.892;6.906;2023-03-05T03:52:14;4.30;99.90
18717;DHT22;9487;50.892;6.906;2023-03-05T03:54:41;4.30;99.90
18717;DHT22;9487;50.892;6.906;2023-03-05T03:57:08;4.30;99.90
18717;DHT22;9487;50.892;6.906;2023-03-05T03:59:35;4.30;99.90
18717;DHT22;9487;50.892;6.906;2023-03-05T04:02:02;4.30;99.90
18717;DHT22;9487;50.892;6.906;2023-03-05T04:04:30;4.30;99.90
18717;DHT22;9487;50.892;6.906;2023-03-05T04:06:58;4.30;99.90
18717;DHT22;9487;50.892;6.906;2023-03-05T04:09:25;4.30;99.90
18717;DHT22;9487;50.892;6.906;2023-03-05T04:11:52;4.30;99.90
18717;DHT22;9487;50.892;6.906;2023-03-05T04:14:18;4.30;99.90
18717;DHT22;9487;50.892;6.906;2023-03-05T04:16:45;4.30;99.90
18717;DHT22;9487;50.892;6.906;2023-03-05T04:19:12;4.30;99.90
18717;DHT22;9487;50.892;6.906;2023-03-05T04:21:40;4.30;99.90
18717;DHT22;9487;50.892;6.906;2023-03-05T04:24:07;4.30;99.90
18717;DHT22;9487;50.892;6.906;2023-03-05T04:26:34;4.40;99.90
18717;DHT22;9487;50.892;6.906;2023-03-05T04:29:01;4.30;99.90
18717;DHT22;9487;50.892;6.906;2023-03-05T04:31:28;4.30;99.90
18717;DHT22;9487;50.892;6.906;2023-03-05T04:33:54;4.40;99.90
18717;DHT22;9487;50.892;6.906;2023-03-05T04:36:21;4.40;99.90
18717;DHT22;9487;50.892;6.906;2023-03-05T04:38:49;4.40;99.90
18717;DHT22;9487;50.892;6.906;2023-03-05T04:41:16;4.30;99.90
18717;DHT22;9487;50.892;6.906;2023-03-05T04:43:43;4.40;99.90
18717;DHT22;9487;50.892;6.906;2023-03-05T04:46:10;4.40;99.90
18717;DHT22;9487;50.892;6.906;2023-03-05T04:48:37;4.30;99.90
18717;DHT22;9487;50.892;6.906;2023-03-05T04:51:04;4.30;99.90
18717;DHT22;9487;50.892;6.906;2023-03-05T04:53:31;4.40;99.90
18717;DHT22;9487;50.892;6.906;2023-03-05T04:55:59;4.30;99.90
18717;DHT22;9487;50.892;6.906;2023-03-05T04:58:27;4.30;99.90
18717;DHT22;9487;50.892;6.906;2023-03-05T05:00:55;4.40;99.90
18717;DHT22;9487;50.892;6.906;2023-03-05T05:03:25;4.40;99.90
18717;DHT22;9487;50.892;6.906;2023-03-05T05:05:56;4.40;99.90
18717;DHT22;9487;50.892;6.906;2023-03-05T05:08:23;4.40;99.90
18717;DHT22;9487;50.892;6.906;2023-03-05T05:10:59;4.30;99.90
18717;DHT22;9487;50.892;6.906;2023-03-05T05:13:27;4.30;99.90
18717;DHT22;9487;50.892;6.906;2023-03-05T05:15:54;4.30;99.90
18717;DHT22;9487;50.892;6.906;2023-03-05T05:18:21;4.30;99.90
18717;DHT22;9487;50.892;6.906;2023-03-05T05:20:48;4.30;99.90
18717;DHT22;9487;50.892;6.906;2023-03-05T05:23:16;4.30;99.90
18717;DHT22;9487;50.892;6.906;2023-03-05T05:25:43;4.30;99.90
18717;DHT22;9487;50.892;6.906;2023-03-05T05:28:11;4.20;99.90
18717;DHT22;9487;50.892;6.906;2023-03-05T05:30:38;4.10;99.90
18717;DHT22;9487;50.892;6.906;2023-03-05T05:33:05;4.10;99.90
18717;DHT22;9487;50.892;6.906;2023-03-05T05:35:33;4.20;99.90
18717;DHT22;9487;50.892;6.906;2023-03-05T05:38:00;4.30;99.90
18717;DHT22;9487;50.892;6.906;2023-03-05T05:40:27;4.40;99.90
18717;DHT22;9487;50.892;6.906;2023-03-05T05:42:53;4.40;99.90
18717;DHT22;9487;50.892;6.906;2023-03-05T05:45:22;4.60;99.90
18717;DHT22;9487;50.892;6.906;2023-03-05T05:47:48;4.80;99.90
18717;DHT22;9487;50.892;6.906;2023-03-05T05:50:15;4.50;99.90
18717;DHT22;9487;50.892;6.906;2023-03-05T05:52:42;4.30;99.90
18717;DHT22;9487;50.892;6.906;2023-03-05T05:55:10;4.20;99.90
18717;DHT22;9487;50.892;6.906;2023-03-05T05:57:37;4.10;99.90
18717;DHT22;9487;50.892;6.906;2023-03-05T06:00:06;4.10;99.90
18717;DHT22;9487;50.892;6.906;2023-03-05T06:02:36;4.10;99.90
18717;DHT22;9487;50.892;6.906;2023-03-05T06:05:04;4.10;99.90
18717;DHT22;9487;50.892;6.906;2023-03-05T06:07:32;4.10;99.90
18717;DHT22;9487;50.892;6.906;2023-03-05T06:09:59;4.10;99.90
18717;DHT22;9487;50.892;6.906;2023-03-05T06:12:26;4.30;99.90
18717;DHT22;9487;50.892;6.906;2023-03-05T06:14:53;4.40;99.90
18717;DHT22;9487;50.892;6.906;2023-03-05T06:17:20;4.30;99.90
18717;DHT22;9487;50.892;6.906;2023-03-05T06:19:48;4.50;99.90
18717;DHT22;9487;50.892;6.906;2023-03-05T06:22:15;4.50;99.90
18717;DHT22;9487;50.892;6.906;2023-03-05T06:24:41;4.40;99.90
18717;DHT22;9487;50.892;6.906;2023-03-05T06:27:08;4.20;99.90
18717;DHT22;9487;50.892;6.906;2023-03-05T06:29:35;4.30;99.90
18717;DHT22;9487;50.892;6.906;2023-03-05T06:32:03;4.50;99.90
18717;DHT22;9487;50.892;6.906;2023-03-05T06:34:30;4.60;99.90
18717;DHT22;9487;50.892;6.906;2023-03-05T06:36:58;4.70;99.90
18717;DHT22;9487;50.892;6.906;2023-03-05T06:39:24;4.50;99.90
18717;DHT22;9487;50.892;6.906;2023-03-05T06:41:51;4.70;99.90
18717;DHT22;9487;50.892;6.906;2023-03-05T06:44:18;4.70;99.90
18717;DHT22;9487;50.892;6.906;2023-03-05T06:46:45;4.80;99.90
18717;DHT22;9487;50.892;6.906;2023-03-05T06:49:11;4.80;99.90
18717;DHT22;9487;50.892;6.906;2023-03-05T06:51:39;4.90;99.90
18717;DHT22;9487;50.892;6.906;2023-03-05T06:54:09;4.90;99.90
18717;DHT22;9487;50.892;6.906;2023-03-05T06:56:38;4.90;99.90
18717;DHT22;9487;50.892;6.906;2023-03-05T06:59:05;4.90;99.90
18717;DHT22;9487;50.892;6.906;2023-03-05T07:01:32;4.90;99.90
18717;DHT22;9487;50.892;6.906;2023-03-05T07:03:59;4.90;99.90
18717;DHT22;9487;50.892;6.906;2023-03-05T07:06:27;4.90;99.90
18717;DHT22;9487;50.892;6.906;2023-03-05T07:08:55;4.90;99.90
18717;DHT22;9487;50.892;6.906;2023-03-05T07:11:23;4.90;99.90
18717;DHT22;9487;50.892;6.906;2023-03-05T07:13:50;4.90;99.90
18717;DHT22;9487;50.892;6.906;2023-03-05T07:16:18;5.00;99.90
18717;DHT22;9487;50.892;6.906;2023-03-05T07:18:45;4.60;99.90
18717;DHT22;9487;50.892;6.906;2023-03-05T07:21:16;4.50;99.90
18717;DHT22;9487;50.892;6.906;2023-03-05T07:23:43;4.60;99.90
18717;DHT22;9487;50.892;6.906;2023-03-05T07:26:10;4.80;99.90
18717;DHT22;9487;50.892;6.906;2023-03-05T07:28:39;4.90;99.90
18717;DHT22;9487;50.892;6.906;2023-03-05T07:31:09;4.90;99.90
18717;DHT22;9487;50.892;6.906;2023-03-05T07:33:37;5.00;99.90
18717;DHT22;9487;50.892;6.906;2023-03-05T07:36:06;5.00;99.90
18717;DHT22;9487;50.892;6.906;2023-03-05T07:38:34;5.10;99.90
18717;DHT22;9487;50.892;6.906;2023-03-05T07:41:01;5.10;99.90
18717;DHT22;9487;50.892;6.906;2023-03-05T07:43:29;5.20;99.90
18717;DHT22;9487;50.892;6.906;2023-03-05T07:45:57;4.90;99.90
18717;DHT22;9487;50.892;6.906;2023-03-05T07:48:24;4.70;99.90
18717;DHT22;9487;50.892;6.906;2023-03-05T07:51:00;4.50;99.90
18717;DHT22;9487;50.892;6.906;2023-03-05T07:53:27;4.70;99.90
18717;DHT22;9487;50.892;6.906;2023-03-05T07:55:54;4.70;99.90
18717;DHT22;9487;50.892;6.906;2023-03-05T07:58:21;4.60;99.90
18717;DHT22;9487;50.892;6.906;2023-03-05T08:00:48;4.60;99.90
18717;DHT22;9487;50.892;6.906;2023-03-05T08:03:17;4.80;99.90
18717;DHT22;9487;50.892;6.906;2023-03-05T08:05:44;4.70;99.90
18717;DHT22;9487;50.892;6.906;2023-03-05T08:08:11;4.50;99.90
18717;DHT22;9487;50.892;6.906;2023-03-05T08:10:38;4.70;99.90
18717;DHT22;9487;50.892;6.906;2023-03-05T08:13:05;4.90;99.90
18717;DHT22;9487;50.892;6.906;2023-03-05T08:15:31;5.00;99.90
18717;DHT22;9487;50.892;6.906;2023-03-05T08:17:58;5.10;99.90
18717;DHT22;9487;50.892;6.906;2023-03-05T08:20:26;5.20;99.90
18717;DHT22;9487;50.892;6.906;2023-03-05T08:22:53;5.70;99.90
18717;DHT22;9487;50.892;6.906;2023-03-05T08:25:20;6.30;99.90
18717;DHT22;9487;50.892;6.906;2023-03-05T08:27:48;6.80;99.90
18717;DHT22;9487;50.892;6.906;2023-03-05T08:30:17;5.70;99.90
18717;DHT22;9487;50.892;6.906;2023-03-05T08:32:47;5.70;99.90
18717;DHT22;9487;50.892;6.906;2023-03-05T08:35:14;5.30;99.90
18717;DHT22;9487;50.892;6.906;2023-03-05T08:37:43;5.10;99.90
18717;DHT22;9487;50.892;6.906;2023-03-05T08:40:11;4.90;99.90
18717;DHT22;9487;50.892;6.906;2023-03-05T08:42:38;4.80;99.90
18717;DHT22;9487;50.892;6.906;2023-03-05T08:45:05;5.00;99.90
18717;DHT22;9487;50.892;6.906;2023-03-05T08:47:33;5.00;99.90
18717;DHT22;9487;50.892;6.906;2023-03-05T08:50:00;4.90;99.90
18717;DHT22;9487;50.892;6.906;2023-03-05T08:52:27;5.10;99.90
18717;DHT22;9487;50.892;6.906;2023-03-05T08:54:55;5.20;99.90
18717;DHT22;9487;50.892;6.906;2023-03-05T08:57:22;5.20;99.90
18717;DHT22;9487;50.892;6.906;2023-03-05T08:59:49;5.20;99.90
18717;DHT22;9487;50.892;6.906;2023-03-05T09:02:15;5.20;99.90
18717;DHT22;9487;50.892;6.906;2023-03-05T09:04:42;5.20;99.90
18717;DHT22;9487;50.892;6.906;2023-03-05T09:07:09;5.20;99.90
18717;DHT22;9487;50.892;6.906;2023-03-05T09:09:37;4.90;99.90
18717;DHT22;9487;50.892;6.906;2023-03-05T09:12:06;4.80;99.90
18717;DHT22;9487;50.892;6.906;2023-03-05T09:14:33;5.00;99.90
18717;DHT22;9487;50.892;6.906;2023-03-05T09:17:01;5.00;99.90
18717;DHT22;9487;50.892;6.906;2023-03-05T09:19:28;4.90;99.90
18717;DHT22;9487;50.892;6.906;2023-03-05T09:21:54;4.90;99.90
18717;DHT22;9487;50.892;6.906;2023-03-05T09:24:21;5.10;99.90
18717;DHT22;9487;50.892;6.906;2023-03-05T09:26:48;5.30;99.90
18717;DHT22;9487;50.892;6.906;2023-03-05T09:29:16;5.40;99.90
18717;DHT22;9487;50.892;6.906;2023-03-05T09:31:43;5.40;99.90
18717;DHT22;9487;50.892;6.906;2023-03-05T09:34:10;5.50;99.90
18717;DHT22;9487;50.892;6.906;2023-03-05T09:36:37;5.50;99.90
18717;DHT22;9487;50.892;6.906;2023-03-05T09:39:04;5.60;99.90
18717;DHT22;9487;50.892;6.906;2023-03-05T09:41:39;5.70;99.90
18717;DHT22;9487;50.892;6.906;2023-03-05T09:44:24;5.80;99.90
18717;DHT22;9487;50.892;6.906;2023-03-05T09:46:54;5.70;99.90
18717;DHT22;9487;50.892;6.906;2023-03-05T09:49:31;5.90;99.90
18717;DHT22;9487;50.892;6.906;2023-03-05T09:52:04;5.90;99.90
18717;DHT22;9487;50.892;6.906;2023-03-05T09:54:37;6.10;99.90
18717;DHT22;9487;50.892;6.906;2023-03-05T09:57:11;6.10;99.90
18717;DHT22;9487;50.892;6.906;2023-03-05T09:59:45;6.20;99.90
18717;DHT22;9487;50.892;6.906;2023-03-05T10:02:17;6.10;99.90
18717;DHT22;9487;50.892;6.906;2023-03-05T10:04:47;6.10;99.90
18717;DHT22;9487;50.892;6.906;2023-03-05T10:07:20;6.00;99.90
18717;DHT22;9487;50.892;6.906;2023-03-05T10:09:53;5.60;99.90
18717;DHT22;9487;50.892;6.906;2023-03-05T10:12:25;5.50;99.90
18717;DHT22;9487;50.892;6.906;2023-03-05T10:14:54;5.50;99.90
18717;DHT22;9487;50.892;6.906;2023-03-05T10:18:06;5.60;99.90
18717;DHT22;9487;50.892;6.906;2023-03-05T10:20:47;5.60;99.90
18717;DHT22;9487;50.892;6.906;2023-03-05T10:23:45;5.70;99.90
18717;DHT22;9487;50.892;6.906;2023-03-05T10:26:22;5.80;99.90
18717;DHT22;9487;50.892;6.906;2023-03-05T10:29:01;5.90;99.90
18717;DHT22;9487;50.892;6.906;2023-03-05T10:34:48;5.70;99.90
18717;DHT22;9487;50.892;6.906;2023-03-05T10:40:17;5.30;99.90
18717;DHT22;9487;50.892;6.906;2023-03-05T10:42:51;5.30;99.90
18717;DHT22;9487;50.892;6.906;2023-03-05T10:45:21;5.30;99.90
18717;DHT22;9487;50.892;6.906;2023-03-05T10:47:54;5.20;99.90
18717;DHT22;9487;50.892;6.906;2023-03-05T10:50:23;5.30;99.90
18717;DHT22;9487;50.892;6.906;2023-03-05T10:52:58;5.30;99.90
18717;DHT22;9487;50.892;6.906;2023-03-05T10:55:28;5.40;99.90
18717;DHT22;9487;50.892;6.906;2023-03-05T10:57:55;5.30;99.90
18717;DHT22;9487;50.892;6.906;2023-03-05T11:00:24;5.40;99.90
18717;DHT22;9487;50.892;6.906;2023-03-05T11:02:58;5.60;99.90
18717;DHT22;9487;50.892;6.906;2023-03-05T11:05:50;5.60;99.90
18717;DHT22;9487;50.892;6.906;2023-03-05T11:08:28;5.60;99.90
18717;DHT22;9487;50.892;6.906;2023-03-05T11:11:11;5.60;99.90
18717;DHT22;9487;50.892;6.906;2023-03-05T11:13:49;5.40;99.90
18717;DHT22;9487;50.892;6.906;2023-03-05T11:16:18;5.40;99.90
18717;DHT22;9487;50.892;6.906;2023-03-05T11:18:46;5.30;99.90
18717;DHT22;9487;50.892;6.906;2023-03-05T11:21:19;5.30;99.90
18717;DHT22;9487;50.892;6.906;2023-03-05T11:24:04;5.30;99.90
18717;DHT22;9487;50.892;6.906;2023-03-05T11:26:31;5.30;99.90
18717;DHT22;9487;50.892;6.906;2023-03-05T11:28:59;5.20;99.90
18717;DHT22;9487;50.892;6.906;2023-03-05T11:31:28;5.20;99.90
18717;DHT22;9487;50.892;6.906;2023-03-05T11:33:59;5.20;99.90
18717;DHT22;9487;50.892;6.906;2023-03-05T11:36:29;5.30;99.90
18717;DHT22;9487;50.892;6.906;2023-03-05T11:38:58;5.40;99.90
18717;DHT22;9487;50.892;6.906;2023-03-05T11:41:30;5.30;99.90
18717;DHT22;9487;50.892;6.906;2023-03-05T11:44:00;5.40;99.90
18717;DHT22;9487;50.892;6.906;2023-03-05T11:46:41;5.40;99.90
18717;DHT22;9487;50.892;6.906;2023-03-05T11:49:15;5.40;99.90
18717;DHT22;9487;50.892;6.906;2023-03-05T11:51:47;5.30;99.90
18717;DHT22;9487;50.892;6.906;2023-03-05T11:54:22;5.20;99.90
18717;DHT22;9487;50.892;6.906;2023-03-05T11:56:50;5.10;99.90
18717;DHT22;9487;50.892;6.906;2023-03-05T11:59:19;4.90;99.90
18717;DHT22;9487;50.892;6.906;2023-03-05T12:01:50;4.80;99.90
18717;DHT22;9487;50.892;6.906;2023-03-05T12:04:19;4.70;99.90
18717;DHT22;9487;50.892;6.906;2023-03-05T12:06:48;4.70;99.90
18717;DHT22;9487;50.892;6.906;2023-03-05T12:09:22;4.70;99.90
18717;DHT22;9487;50.892;6.906;2023-03-05T12:11:55;4.80;99.90
18717;DHT22;9487;50.892;6.906;2023-03-05T12:14:30;4.80;99.90
18717;DHT22;9487;50.892;6.906;2023-03-05T12:17:06;4.90;99.90
18717;DHT22;9487;50.892;6.906;2023-03-05T12:19:46;4.90;99.90
18717;DHT22;9487;50.892;6.906;2023-03-05T12:22:20;4.90;99.90
18717;DHT22;9487;50.892;6.906;2023-03-05T12:24:48;4.80;99.90
18717;DHT22;9487;50.892;6.906;2023-03-05T12:27:30;4.90;99.90
18717;DHT22;9487;50.892;6.906;2023-03-05T12:29:57;4.90;99.90
18717;DHT22;9487;50.892;6.906;2023-03-05T12:32:59;5.00;99.90
18717;DHT22;9487;50.892;6.906;2023-03-05T12:35:37;5.10;99.90
18717;DHT22;9487;50.892;6.906;2023-03-05T12:38:27;5.10;99.90
18717;DHT22;9487;50.892;6.906;2023-03-05T12:44:21;5.20;99.90
18717;DHT22;9487;50.892;6.906;2023-03-05T12:47:17;5.30;99.90
18717;DHT22;9487;50.892;6.906;2023-03-05T12:49:47;5.20;99.90
18717;DHT22;9487;50.892;6.906;2023-03-05T12:52:29;5.30;99.90
18717;DHT22;9487;50.892;6.906;2023-03-05T12:55:14;5.30;99.90
18717;DHT22;9487;50.892;6.906;2023-03-05T12:57:43;5.30;99.90
18717;DHT22;9487;50.892;6.906;2023-03-05T13:00:15;5.30;99.90
18717;DHT22;9487;50.892;6.906;2023-03-05T13:02:49;5.30;99.90
18717;DHT22;9487;50.892;6.906;2023-03-05T13:05:23;5.40;99.90
18717;DHT22;9487;50.892;6.906;2023-03-05T13:07:52;5.30;99.90
18717;DHT22;9487;50.892;6.906;2023-03-05T13:10:34;5.40;99.90
18717;DHT22;9487;50.892;6.906;2023-03-05T13:13:01;5.60;99.90
18717;DHT22;9487;50.892;6.906;2023-03-05T13:15:28;5.70;99.90
18717;DHT22;9487;50.892;6.906;2023-03-05T13:17:57;5.80;99.90
18717;DHT22;9487;50.892;6.906;2023-03-05T13:20:33;5.90;99.90
18717;DHT22;9487;50.892;6.906;2023-03-05T13:23:15;6.00;99.90
18717;DHT22;9487;50.892;6.906;2023-03-05T13:25:43;5.80;99.90
18717;DHT22;9487;50.892;6.906;2023-03-05T13:28:12;5.80;99.90
18717;DHT22;9487;50.892;6.906;2023-03-05T13:30:44;5.60;99.90
18717;DHT22;9487;50.892;6.906;2023-03-05T13:33:15;5.70;99.90
18717;DHT22;9487;50.892;6.906;2023-03-05T13:35:44;5.80;99.90
18717;DHT22;9487;50.892;6.906;2023-03-05T13:38:21;5.90;99.90
18717;DHT22;9487;50.892;6.906;2023-03-05T13:41:17;6.00;99.90
18717;DHT22;9487;50.892;6.906;2023-03-05T13:43:46;6.00;99.90
18717;DHT22;9487;50.892;6.906;2023-03-05T13:46:21;6.00;99.90
18717;DHT22;9487;50.892;6.906;2023-03-05T13:48:47;5.90;99.90
18717;DHT22;9487;50.892;6.906;2023-03-05T13:51:14;5.70;99.90
18717;DHT22;9487;50.892;6.906;2023-03-05T13:53:43;5.70;99.90
18717;DHT22;9487;50.892;6.906;2023-03-05T13:56:13;5.60;99.90
18717;DHT22;9487;50.892;6.906;2023-03-05T13:58:47;5.70;99.90
18717;DHT22;9487;50.892;6.906;2023-03-05T14:01:21;5.60;99.90
18717;DHT22;9487;50.892;6.906;2023-03-05T14:03:50;5.50;99.90
18717;DHT22;9487;50.892;6.906;2023-03-05T14:06:20;5.40;99.90
18717;DHT22;9487;50.892;6.906;2023-03-05T14:08:53;5.40;99.90
18717;DHT22;9487;50.892;6.906;2023-03-05T14:11:20;5.50;99.90
18717;DHT22;9487;50.892;6.906;2023-03-05T14:13:47;5.40;99.90
18717;DHT22;9487;50.892;6.906;2023-03-05T14:16:24;5.30;99.90
18717;DHT22;9487;50.892;6.906;2023-03-05T14:18:54;5.30;99.90
18717;DHT22;9487;50.892;6.906;2023-03-05T14:21:21;5.30;99.90
18717;DHT22;9487;50.892;6.906;2023-03-05T14:23:48;5.20;99.90
18717;DHT22;9487;50.892;6.906;2023-03-05T14:26:25;5.10;99.90
18717;DHT22;9487;50.892;6.906;2023-03-05T14:28:54;5.00;99.90
18717;DHT22;9487;50.892;6.906;2023-03-05T14:31:22;5.00;99.90
18717;DHT22;9487;50.892;6.906;2023-03-05T14:33:50;5.00;99.90
18717;DHT22;9487;50.892;6.906;2023-03-05T14:36:26;4.90;99.90
18717;DHT22;9487;50.892;6.906;2023-03-05T14:38:54;4.90;99.90
18717;DHT22;9487;50.892;6.906;2023-03-05T14:41:37;4.90;99.90
18717;DHT22;9487;50.892;6.906;2023-03-05T14:44:12;4.90;99.90
18717;DHT22;9487;50.892;6.906;2023-03-05T14:46:39;4.90;99.90
18717;DHT22;9487;50.892;6.906;2023-03-05T14:49:06;4.90;99.90
18717;DHT22;9487;50.892;6.906;2023-03-05T14:51:37;4.90;99.90
18717;DHT22;9487;50.892;6.906;2023-03-05T14:54:04;5.00;99.90
18717;DHT22;9487;50.892;6.906;2023-03-05T14:56:33;5.10;99.90
18717;DHT22;9487;50.892;6.906;2023-03-05T14:59:00;5.10;99.90
18717;DHT22;9487;50.892;6.906;2023-03-05T15:01:27;5.10;99.90
18717;DHT22;9487;50.892;6.906;2023-03-05T15:03:54;5.00;99.90
18717;DHT22;9487;50.892;6.906;2023-03-05T15:06:29;5.00;99.90
18717;DHT22;9487;50.892;6.906;2023-03-05T15:08:57;5.00;99.90
18717;DHT22;9487;50.892;6.906;2023-03-05T15:11:24;5.00;99.90
18717;DHT22;9487;50.892;6.906;2023-03-05T15:13:52;5.00;99.90
18717;DHT22;9487;50.892;6.906;2023-03-05T15:16:19;5.00;99.90
18717;DHT22;9487;50.892;6.906;2023-03-05T15:18:47;5.10;99.90
18717;DHT22;9487;50.892;6.906;2023-03-05T15:21:14;5.10;99.90
18717;DHT22;9487;50.892;6.906;2023-03-05T15:23:41;5.10;99.90
18717;DHT22;9487;50.892;6.906;2023-03-05T15:26:12;5.10;99.90
18717;DHT22;9487;50.892;6.906;2023-03-05T15:28:40;5.10;99.90
18717;DHT22;9487;50.892;6.906;2023-03-05T15:31:09;5.10;99.90
18717;DHT22;9487;50.892;6.906;2023-03-05T15:33:36;5.10;99.90
18717;DHT22;9487;50.892;6.906;2023-03-05T15:36:04;5.10;99.90
18717;DHT22;9487;50.892;6.906;2023-03-05T15:38:31;5.30;99.90
18717;DHT22;9487;50.892;6.906;2023-03-05T15:40:57;5.50;99.90
18717;DHT22;9487;50.892;6.906;2023-03-05T15:43:24;5.70;99.90
18717;DHT22;9487;50.892;6.906;2023-03-05T15:45:51;5.80;99.90
18717;DHT22;9487;50.892;6.906;2023-03-05T15:48:19;5.80;99.90
18717;DHT22;9487;50.892;6.906;2023-03-05T15:50:46;5.80;99.90
18717;DHT22;9487;50.892;6.906;2023-03-05T15:53:13;5.90;99.90
18717;DHT22;9487;50.892;6.906;2023-03-05T15:55:43;5.90;99.90
18717;DHT22;9487;50.892;6.906;2023-03-05T15:58:13;5.90;99.90
18717;DHT22;9487;50.892;6.906;2023-03-05T16:00:40;5.90;99.90
18717;DHT22;9487;50.892;6.906;2023-03-05T16:03:07;5.90;99.90
18717;DHT22;9487;50.892;6.906;2023-03-05T16:05:36;5.80;99.90
18717;DHT22;9487;50.892;6.906;2023-03-05T16:08:04;5.70;99.90
18717;DHT22;9487;50.892;6.906;2023-03-05T16:10:32;5.80;99.90
18717;DHT22;9487;50.892;6.906;2023-03-05T16:13:02;5.70;99.90
18717;DHT22;9487;50.892;6.906;2023-03-05T16:15:30;5.50;99.90
18717;DHT22;9487;50.892;6.906;2023-03-05T16:17:59;5.50;99.90
18717;DHT22;9487;50.892;6.906;2023-03-05T16:20:28;5.60;99.90
18717;DHT22;9487;50.892;6.906;2023-03-05T16:22:56;5.80;99.90
18717;DHT22;9487;50.892;6.906;2023-03-05T16:25:22;5.80;99.90